Flight Track Log - Related Links

Times and Time Zones

All times are in EDT time to prevent confusion due to time zone crossing. See the LBQ792 flight status page for this flight to view local times or setup timezone preferences in your user account.

Time Position Orientation Groundspeed Altitude Reporting Facility
EDT Latitude Longitude Course Direction KTS MPH feet Rate Location/Type
Mon 08:44:04 PM 40.4778 -76.1244 352° North 219 252 5,000  Level New York Center
Mon 08:45:00 PM 40.5192 -76.4448 286° West  Level FlightAware Approximate
Mon 08:45:05 PM 40.5492 -76.1572 341° North 246 283 5,000  Level New York Center
Mon 08:46:00 PM 40.5394 -76.5355 286° West  Level FlightAware Approximate
Mon 08:46:06 PM 40.6064 -76.1808 343° North 231 266 12,000  Level New York Center
Mon 08:47:00 PM 40.5817 -76.5992 339° North  Level FlightAware Approximate
Mon 08:47:03 PM 40.6556 -76.2011 343° North 192 221 12,000  Level New York Center
Mon 08:48:00 PM 40.6531 -76.6066 352° North  Level FlightAware Approximate
Mon 08:48:04 PM 40.7028 -76.2186 344° North 186 214 12,000  Level New York Center
Mon 08:49:00 PM 40.7097 -76.6171 352° North  Level Estimated
Mon 08:49:04 PM 40.7517 -76.2389 343° North 186 214 12,000  Level New York Center
Mon 08:50:06 PM 40.8089 -76.2625 343° North 186 214 12,000  Level New York Center
Mon 08:51:03 PM 40.8681 -76.2894 341° North 196 226 12,000  Level New York Center
Mon 08:52:05 PM 40.9250 -76.3186 339° North 235 270 12,000  Level New York Center
Mon 08:53:05 PM 40.9986 -76.3522 341° North 250 288 12,000  Level New York Center
Mon 08:54:03 PM 41.0636 -76.3878 338° Northwest 250 288 12,000  Level New York Center
Mon 08:55:04 PM 41.1308 -76.4181 341° North 250 288 12,000  Level New York Center
Mon 08:56:05 PM 41.1900 -76.4478 339° North 250 288 12,000  Level New York Center
Mon 08:57:05 PM 41.2569 -76.4811 339° North 250 288 12,000  Level New York Center
Mon 08:58:06 PM 41.3303 -76.5150 341° North 250 288 12,000  Level New York Center
Mon 08:59:03 PM 41.3978 -76.5428 343° North 245 282 12,000  Level New York Center
Mon 09:00:05 PM 41.4650 -76.5736 341° North 245 282 12,000  Level New York Center
Mon 09:01:03 PM 41.5261 -76.6039 340° North 245 282 12,000 -101 Level New York Center
Mon 09:02:04 PM 41.5911 -76.6372 339° North 245 282 11,800 -744 Descending New York Center
Mon 09:03:04 PM 41.6706 -76.6719 342° North 260 299 10,500 -1,240 Descending New York Center
Mon 09:04:05 PM 41.7461 -76.7008 344° North 273 314 9,300 -1,190 Descending New York Center
Mon 09:05:05 PM 41.8233 -76.6967 North 273 314 8,100 -1,200 Descending New York Center

Login

Don't have an account? Register now (free) for customized features, flight alerts, and more!